Time;durP1;ratioP1;P1;durP2;ratioP2;P2;SDS_P1;SDS_P2;PMS_P1;PMS_P2;Temp;Humidity;BMP_temperature;BMP_pressure;BME280_temperature;BME280_humidity;BME280_pressure;Samples;Min_cycle;Max_cycle;Signal;HPM_P1;HPM_P2
2022/04/01 00:02:20;;;;;;;5.22;3.17;;;;;;;;;;5053618;28;20046;-65
2022/04/01 00:04:46;;;;;;;6.82;3.30;;;;;;;;;;5052715;28;20524;-65
2022/04/01 00:07:13;;;;;;;8.15;2.83;;;;;;;;;;5052213;28;20036;-65
2022/04/01 00:09:39;;;;;;;5.10;2.92;;;;;;;;;;5052042;28;20048;-65
2022/04/01 00:12:06;;;;;;;4.72;2.83;;;;;;;;;;5053351;28;20110;-65
2022/04/01 00:14:32;;;;;;;5.07;2.75;;;;;;;;;;5071743;28;20053;-65
2022/04/01 00:16:58;;;;;;;3.88;2.50;;;;;;;;;;5053240;28;20040;-65
2022/04/01 00:19:24;;;;;;;4.80;3.25;;;;;;;;;;5052538;28;20504;-67
2022/04/01 00:21:51;;;;;;;5.40;2.92;;;;;;;;;;5070717;28;20036;-67
2022/04/01 00:24:17;;;;;;;5.95;2.58;;;;;;;;;;5050339;28;20094;-67
2022/04/01 00:26:45;;;;;;;5.40;2.63;;;;;;;;;;5070428;28;20066;-67
2022/04/01 00:29:15;;;;;;;9.35;2.75;;;;;;;;;;5071075;28;20040;-67
2022/04/01 00:31:44;;;;;;;4.18;2.83;;;;;;;;;;5052206;28;20059;-67
2022/04/01 00:34:16;;;;;;;7.07;3.10;;;;;;;;;;5052161;28;20126;-67
2022/04/01 00:36:49;;;;;;;6.85;2.88;;;;;;;;;;5051920;28;20036;-67
2022/04/01 00:39:17;;;;;;;5.50;2.63;;;;;;;;;;5051949;28;20045;-67
2022/04/01 00:41:44;;;;;;;6.03;3.20;;;;;;;;;;5050693;28;20045;-67
2022/04/01 00:44:18;;;;;;;6.10;2.88;;;;;;;;;;5051831;28;20136;-67
2022/04/01 00:46:45;;;;;;;7.80;3.03;;;;;;;;;;5052257;28;20036;-67
2022/04/01 00:49:11;;;;;;;7.22;2.20;;;;;;;;;;5070517;28;20048;-67
2022/04/01 00:51:37;;;;;;;5.25;2.53;;;;;;;;;;5053374;28;20055;-66
2022/04/01 00:54:07;;;;;;;4.82;2.50;;;;;;;;;;5053667;28;20392;-67
2022/04/01 00:56:33;;;;;;;6.60;2.90;;;;;;;;;;5051357;28;20048;-67
2022/04/01 00:59:00;;;;;;;5.78;2.72;;;;;;;;;;5052773;28;20553;-68
2022/04/01 01:01:26;;;;;;;6.47;2.85;;;;;;;;;;5051830;28;20033;-67
2022/04/01 01:03:53;;;;;;;5.63;2.42;;;;;;;;;;5051005;28;20055;-67
2022/04/01 01:06:20;;;;;;;5.93;2.35;;;;;;;;;;5051102;28;20504;-67
2022/04/01 01:08:47;;;;;;;5.38;2.53;;;;;;;;;;5051288;28;20044;-67
2022/04/01 01:11:14;;;;;;;5.97;3.13;;;;;;;;;;5050315;28;20582;-67
2022/04/01 01:13:41;;;;;;;4.78;2.47;;;;;;;;;;5050954;28;20517;-67
2022/04/01 01:16:09;;;;;;;6.20;2.28;;;;;;;;;;5049737;28;20048;-67
2022/04/01 01:18:36;;;;;;;4.72;2.50;;;;;;;;;;5050193;28;20040;-67
2022/04/01 01:21:02;;;;;;;5.15;2.50;;;;;;;;;;5049086;28;20453;-67
2022/04/01 01:23:32;;;;;;;4.95;2.40;;;;;;;;;;5049494;28;20497;-67
2022/04/01 01:26:00;;;;;;;5.60;2.40;;;;;;;;;;5066341;28;20032;-67
2022/04/01 01:28:27;;;;;;;3.20;2.13;;;;;;;;;;5050359;28;20044;-66
2022/04/01 01:30:53;;;;;;;4.47;2.25;;;;;;;;;;5067662;28;20386;-67
2022/04/01 01:33:25;;;;;;;4.15;2.63;;;;;;;;;;5050390;28;20045;-67
2022/04/01 01:35:51;;;;;;;5.43;2.60;;;;;;;;;;5068279;28;20380;-67
2022/04/01 01:38:19;;;;;;;8.45;2.90;;;;;;;;;;5068251;28;20036;-67
2022/04/01 01:40:45;;;;;;;6.30;2.42;;;;;;;;;;5050420;28;20052;-67
2022/04/01 01:43:12;;;;;;;3.47;2.05;;;;;;;;;;5051510;28;20032;-67
2022/04/01 01:45:38;;;;;;;4.72;2.55;;;;;;;;;;5050741;28;20123;-67
2022/04/01 01:48:04;;;;;;;5.07;2.45;;;;;;;;;;5050340;28;20133;-67
2022/04/01 01:56:00;;;;;;;4.70;2.40;;;;;;;;;;5069015;28;20051;-67
2022/04/01 01:58:27;;;;;;;3.00;2.08;;;;;;;;;;5068404;28;20040;-67
2022/04/01 02:00:53;;;;;;;4.47;2.47;;;;;;;;;;5068805;28;20052;-67
2022/04/01 02:03:19;;;;;;;3.97;2.05;;;;;;;;;;5049802;28;20119;-67
2022/04/01 02:05:46;;;;;;;4.05;2.30;;;;;;;;;;5067983;28;20071;-67
2022/04/01 02:08:12;;;;;;;3.70;2.58;;;;;;;;;;5034023;28;20708;-67
2022/04/01 02:10:38;;;;;;;6.90;2.78;;;;;;;;;;5067386;28;20382;-66
2022/04/01 02:13:05;;;;;;;5.40;2.33;;;;;;;;;;5068855;28;20044;-67
2022/04/01 02:15:33;;;;;;;3.95;2.55;;;;;;;;;;5051184;28;20076;-67
2022/04/01 02:17:59;;;;;;;5.90;2.20;;;;;;;;;;5050289;28;20068;-66
2022/04/01 02:20:25;;;;;;;6.03;2.28;;;;;;;;;;5049522;28;20454;-67
2022/04/01 02:22:53;;;;;;;6.18;3.03;;;;;;;;;;5050065;28;20097;-66
2022/04/01 02:25:19;;;;;;;4.50;2.80;;;;;;;;;;5050272;28;20055;-67
2022/04/01 02:27:45;;;;;;;2.90;1.52;;;;;;;;;;5068064;28;20055;-67
2022/04/01 02:30:12;;;;;;;4.80;2.65;;;;;;;;;;5048648;28;20044;-67
2022/04/01 02:32:39;;;;;;;6.57;2.72;;;;;;;;;;5049908;28;20048;-67
2022/04/01 02:35:05;;;;;;;5.78;2.88;;;;;;;;;;5067704;28;20135;-67
2022/04/01 02:37:31;;;;;;;4.10;2.60;;;;;;;;;;5050132;28;20055;-67
2022/04/01 02:39:58;;;;;;;5.63;2.47;;;;;;;;;;5033162;28;20599;-67
2022/04/01 02:42:24;;;;;;;6.75;2.00;;;;;;;;;;5049521;28;20089;-66
2022/04/01 02:44:50;;;;;;;3.65;1.80;;;;;;;;;;5050391;28;20083;-66
2022/04/01 02:47:16;;;;;;;4.65;2.50;;;;;;;;;;5068331;28;20052;-66
2022/04/01 02:49:42;;;;;;;6.97;2.78;;;;;;;;;;5049032;28;20043;-66
2022/04/01 02:52:09;;;;;;;5.75;2.60;;;;;;;;;;5050396;28;20051;-66
2022/04/01 02:54:35;;;;;;;7.65;3.55;;;;;;;;;;5050203;28;20051;-66
2022/04/01 02:57:02;;;;;;;5.25;2.67;;;;;;;;;;5067455;28;20090;-66
2022/04/01 02:59:29;;;;;;;4.57;2.58;;;;;;;;;;5050040;28;20060;-66
2022/04/01 03:01:55;;;;;;;3.10;1.90;;;;;;;;;;5050019;28;20108;-66
2022/04/01 03:04:22;;;;;;;4.60;2.22;;;;;;;;;;5049887;28;20028;-66
2022/04/01 03:06:49;;;;;;;6.32;2.30;;;;;;;;;;5070039;28;20037;-66
2022/04/01 03:09:15;;;;;;;4.18;2.72;;;;;;;;;;5053285;28;20052;-67
2022/04/01 03:11:41;;;;;;;3.38;2.42;;;;;;;;;;5072358;28;20094;-67
2022/04/01 03:14:09;;;;;;;6.72;3.00;;;;;;;;;;5071464;28;20048;-66
2022/04/01 03:16:36;;;;;;;5.00;2.85;;;;;;;;;;5052917;28;20040;-66
2022/04/01 03:19:04;;;;;;;6.78;3.03;;;;;;;;;;5052207;28;20052;-66
2022/04/01 03:21:30;;;;;;;4.80;2.80;;;;;;;;;;5072082;28;20040;-66
2022/04/01 03:23:56;;;;;;;4.65;2.65;;;;;;;;;;5052528;28;20043;-66
2022/04/01 03:26:23;;;;;;;5.13;2.40;;;;;;;;;;5035062;28;20036;-66
2022/04/01 03:28:49;;;;;;;5.15;2.40;;;;;;;;;;5070231;28;20085;-66
2022/04/01 03:31:16;;;;;;;4.03;2.45;;;;;;;;;;5052336;28;20032;-66
2022/04/01 03:33:42;;;;;;;5.90;2.25;;;;;;;;;;5051775;28;20487;-66
2022/04/01 03:36:08;;;;;;;6.43;2.97;;;;;;;;;;5051183;28;20079;-66
2022/04/01 03:38:35;;;;;;;5.10;2.03;;;;;;;;;;5070719;28;20044;-66
2022/04/01 03:41:05;;;;;;;3.42;2.42;;;;;;;;;;5052649;28;20090;-66
2022/04/01 03:43:34;;;;;;;5.55;2.53;;;;;;;;;;5066789;28;20083;-66
2022/04/01 03:46:04;;;;;;;5.20;2.90;;;;;;;;;;5052900;28;20483;-66
2022/04/01 03:48:40;;;;;;;4.88;2.50;;;;;;;;;;5052831;28;20068;-66
2022/04/01 03:51:06;;;;;;;4.53;1.90;;;;;;;;;;5052590;28;20052;-66
2022/04/01 03:53:36;;;;;;;5.45;2.60;;;;;;;;;;5053051;28;20047;-66
2022/04/01 03:56:06;;;;;;;4.45;2.08;;;;;;;;;;5070423;28;20083;-66
2022/04/01 03:58:34;;;;;;;3.53;2.10;;;;;;;;;;5052479;28;20123;-66
2022/04/01 04:01:01;;;;;;;6.55;2.28;;;;;;;;;;5071169;28;20456;-66
2022/04/01 04:03:34;;;;;;;4.63;2.22;;;;;;;;;;5052263;28;20094;-66
2022/04/01 04:06:00;;;;;;;5.97;2.10;;;;;;;;;;5069557;28;20055;-66
2022/04/01 04:08:26;;;;;;;3.75;1.95;;;;;;;;;;5069897;28;20038;-66
2022/04/01 04:10:53;;;;;;;5.53;2.28;;;;;;;;;;5070752;28;20049;-66
2022/04/01 04:13:20;;;;;;;5.35;2.15;;;;;;;;;;5052597;28;20048;-66
2022/04/01 04:16:04;;;;;;;4.75;2.25;;;;;;;;;;5069443;28;20040;-66
2022/04/01 04:18:34;;;;;;;4.15;2.05;;;;;;;;;;5051029;28;20784;-66
2022/04/01 04:21:10;;;;;;;3.60;2.30;;;;;;;;;;5051823;28;20370;-66
2022/04/01 04:23:42;;;;;;;6.30;2.20;;;;;;;;;;5035752;28;20075;-66
2022/04/01 04:26:15;;;;;;;3.60;2.40;;;;;;;;;;5049858;28;20536;-66
2022/04/01 04:28:46;;;;;;;5.53;2.40;;;;;;;;;;5051401;28;20441;-66
2022/04/01 04:31:12;;;;;;;3.42;1.83;;;;;;;;;;5051403;28;20044;-66
2022/04/01 04:33:44;;;;;;;5.55;2.40;;;;;;;;;;5051667;28;20037;-66
2022/04/01 04:36:11;;;;;;;4.47;2.30;;;;;;;;;;5068597;28;20066;-66
2022/04/01 04:38:38;;;;;;;4.93;2.35;;;;;;;;;;5069639;28;20040;-66
2022/04/01 04:41:08;;;;;;;3.53;1.92;;;;;;;;;;5050988;28;20127;-66
2022/04/01 04:43:38;;;;;;;3.13;2.13;;;;;;;;;;5051546;28;20074;-66
2022/04/01 04:46:05;;;;;;;4.55;1.85;;;;;;;;;;5051490;28;20458;-66
2022/04/01 04:48:33;;;;;;;9.30;2.47;;;;;;;;;;5051096;28;20511;-66
2022/04/01 04:51:02;;;;;;;3.00;1.23;;;;;;;;;;5069229;28;20052;-65
2022/04/01 04:53:30;;;;;;;4.68;2.38;;;;;;;;;;5070090;28;20098;-66
2022/04/01 04:55:59;;;;;;;3.38;1.73;;;;;;;;;;5068749;28;20044;-66
2022/04/01 04:58:29;;;;;;;2.40;1.63;;;;;;;;;;5068920;28;20044;-66
2022/04/01 05:00:59;;;;;;;4.93;1.90;;;;;;;;;;5067512;28;20129;-66
2022/04/01 05:03:31;;;;;;;4.15;1.90;;;;;;;;;;5050547;28;20524;-66
2022/04/01 05:05:59;;;;;;;6.65;2.40;;;;;;;;;;5050214;28;20429;-66
2022/04/01 05:08:46;;;;;;;6.57;2.28;;;;;;;;;;5068766;28;20074;-66
2022/04/01 05:11:33;;;;;;;3.53;2.00;;;;;;;;;;5050094;28;20382;-66
2022/04/01 05:14:00;;;;;;;6.25;1.88;;;;;;;;;;5018151;28;20041;-66
2022/04/01 05:16:37;;;;;;;4.38;2.00;;;;;;;;;;5050744;28;20106;-66
2022/04/01 05:19:13;;;;;;;3.47;1.73;;;;;;;;;;5067031;28;20041;-66
2022/04/01 05:21:58;;;;;;;3.35;1.88;;;;;;;;;;5050322;28;20473;-66
2022/04/01 05:24:27;;;;;;;3.72;1.90;;;;;;;;;;5069119;28;20413;-66
2022/04/01 05:26:55;;;;;;;3.63;2.22;;;;;;;;;;5068657;28;20109;-66
2022/04/01 05:29:25;;;;;;;4.15;1.95;;;;;;;;;;5067147;28;20536;-66
2022/04/01 05:31:55;;;;;;;4.28;1.80;;;;;;;;;;5051298;28;20073;-66
2022/04/01 05:34:34;;;;;;;3.85;1.90;;;;;;;;;;5069352;28;20120;-66
2022/04/01 05:37:01;;;;;;;4.72;1.80;;;;;;;;;;5050581;28;20036;-66
2022/04/01 05:39:28;;;;;;;4.75;1.85;;;;;;;;;;5067016;28;20127;-66
2022/04/01 05:41:55;;;;;;;6.20;2.38;;;;;;;;;;5067721;28;20048;-66
2022/04/01 05:44:22;;;;;;;4.90;2.30;;;;;;;;;;5066749;28;20077;-68
2022/04/01 05:46:51;;;;;;;5.95;1.98;;;;;;;;;;5049770;28;20127;-68
2022/04/01 05:49:18;;;;;;;6.10;1.67;;;;;;;;;;5051509;28;20119;-68
2022/04/01 05:51:46;;;;;;;5.78;2.40;;;;;;;;;;5050256;28;20044;-68
2022/04/01 05:54:12;;;;;;;3.85;1.20;;;;;;;;;;5051216;28;20182;-69
2022/04/01 05:56:39;;;;;;;3.58;1.67;;;;;;;;;;5050862;28;20102;-69
2022/04/01 05:59:05;;;;;;;4.63;1.60;;;;;;;;;;5049916;28;20045;-69
2022/04/01 06:01:42;;;;;;;2.47;1.30;;;;;;;;;;5050580;28;20095;-69
2022/04/01 06:04:27;;;;;;;3.53;1.50;;;;;;;;;;5051513;28;20135;-69
2022/04/01 06:06:58;;;;;;;2.50;1.00;;;;;;;;;;5049930;28;20515;-69
2022/04/01 06:09:31;;;;;;;3.25;1.40;;;;;;;;;;5033538;28;20056;-69
2022/04/01 06:12:10;;;;;;;3.22;1.38;;;;;;;;;;5049147;28;20408;-69
2022/04/01 06:14:40;;;;;;;1.90;1.00;;;;;;;;;;5052159;28;20076;-69
2022/04/01 06:17:16;;;;;;;3.38;1.58;;;;;;;;;;5051553;28;20040;-68
2022/04/01 06:19:47;;;;;;;2.65;1.00;;;;;;;;;;5048786;28;20049;-68
2022/04/01 06:22:13;;;;;;;2.80;1.40;;;;;;;;;;5047923;28;20052;-68
2022/04/01 06:24:39;;;;;;;2.83;1.30;;;;;;;;;;5049852;28;20028;-68
2022/04/01 06:27:06;;;;;;;3.97;1.20;;;;;;;;;;5048526;28;20044;-68
2022/04/01 06:29:35;;;;;;;3.88;1.40;;;;;;;;;;5049477;28;20047;-68
2022/04/01 06:32:21;;;;;;;6.82;1.80;;;;;;;;;;5048260;28;20116;-68
2022/04/01 06:34:50;;;;;;;4.82;1.40;;;;;;;;;;5047969;28;20040;-67
2022/04/01 06:37:29;;;;;;;5.22;1.23;;;;;;;;;;5049985;28;20048;-68
2022/04/01 06:39:55;;;;;;;3.30;1.35;;;;;;;;;;5048374;28;20051;-68
2022/04/01 06:42:24;;;;;;;3.78;1.52;;;;;;;;;;5049998;28;20041;-68
2022/04/01 06:44:50;;;;;;;2.63;1.15;;;;;;;;;;5031671;28;20043;-68
2022/04/01 06:47:17;;;;;;;4.45;1.70;;;;;;;;;;5050106;28;20535;-68
2022/04/01 06:49:43;;;;;;;3.17;1.20;;;;;;;;;;5047887;28;20116;-68
2022/04/01 06:52:09;;;;;;;6.85;1.30;;;;;;;;;;5048035;28;20946;-68
2022/04/01 06:54:36;;;;;;;2.53;1.15;;;;;;;;;;5046709;28;20040;-68
2022/04/01 06:57:02;;;;;;;2.33;1.45;;;;;;;;;;5049636;28;20071;-68
2022/04/01 06:59:28;;;;;;;1.25;0.93;;;;;;;;;;5050213;28;20099;-68
2022/04/01 07:01:54;;;;;;;5.10;1.52;;;;;;;;;;5049432;28;20032;-68
2022/04/01 07:04:20;;;;;;;4.00;1.20;;;;;;;;;;5049720;28;20044;-68
2022/04/01 07:06:47;;;;;;;4.40;1.52;;;;;;;;;;5050127;28;20169;-68
2022/04/01 07:09:13;;;;;;;3.47;1.50;;;;;;;;;;5050245;28;20497;-68
2022/04/01 07:11:40;;;;;;;5.50;1.13;;;;;;;;;;5045328;28;20064;-68
2022/04/01 07:14:06;;;;;;;2.40;1.13;;;;;;;;;;5047578;28;21211;-68
2022/04/01 07:16:32;;;;;;;5.43;1.50;;;;;;;;;;5048123;28;20052;-68
2022/04/01 07:18:58;;;;;;;3.38;1.30;;;;;;;;;;5047446;28;20481;-68
2022/04/01 07:21:24;;;;;;;2.13;1.35;;;;;;;;;;5029770;28;20047;-68
2022/04/01 07:23:51;;;;;;;3.75;1.23;;;;;;;;;;5032101;28;20044;-68
2022/04/01 07:26:18;;;;;;;3.30;1.45;;;;;;;;;;5048517;28;20053;-69
2022/04/01 07:28:44;;;;;;;2.72;1.30;;;;;;;;;;5048585;28;20045;-69
2022/04/01 07:33:55;;;;;;;2.78;1.40;;;;;;;;;;5048147;28;20159;-69
2022/04/01 07:36:21;;;;;;;3.78;1.08;;;;;;;;;;5047112;28;20033;-69
2022/04/01 07:38:47;;;;;;;3.28;1.55;;;;;;;;;;5049052;28;20037;-68
2022/04/01 07:41:13;;;;;;;3.80;1.55;;;;;;;;;;5048689;28;20389;-68
2022/04/01 07:43:39;;;;;;;2.00;1.00;;;;;;;;;;5045529;28;20576;-69
2022/04/01 07:46:05;;;;;;;4.65;1.52;;;;;;;;;;5047360;28;20044;-68
2022/04/01 07:48:31;;;;;;;4.35;1.58;;;;;;;;;;5048147;28;20040;-70
2022/04/01 07:50:58;;;;;;;1.42;1.00;;;;;;;;;;5047177;28;20045;-71
2022/04/01 07:53:24;;;;;;;5.88;1.67;;;;;;;;;;5048659;28;20048;-69
2022/04/01 07:55:50;;;;;;;4.05;1.35;;;;;;;;;;5055268;28;20054;-70
2022/04/01 07:58:18;;;;;;;2.95;1.20;;;;;;;;;;5049138;28;20500;-70
2022/04/01 08:00:44;;;;;;;3.42;1.50;;;;;;;;;;5046831;28;20136;-70
2022/04/01 08:03:11;;;;;;;4.55;1.60;;;;;;;;;;5049130;28;20401;-70
2022/04/01 08:05:37;;;;;;;3.78;1.58;;;;;;;;;;5048949;28;20053;-70
2022/04/01 08:08:03;;;;;;;4.65;1.65;;;;;;;;;;5048713;28;20041;-70
2022/04/01 08:10:29;;;;;;;3.45;1.55;;;;;;;;;;5048116;28;20124;-70
2022/04/01 08:12:55;;;;;;;4.90;1.90;;;;;;;;;;5048007;28;20056;-70
2022/04/01 08:15:22;;;;;;;3.63;1.38;;;;;;;;;;5050955;28;20045;-70
2022/04/01 08:17:48;;;;;;;2.88;1.30;;;;;;;;;;5052178;28;20044;-70
2022/04/01 08:20:14;;;;;;;2.95;1.40;;;;;;;;;;5051436;28;20043;-70
2022/04/01 08:22:41;;;;;;;3.90;1.48;;;;;;;;;;5050828;28;20082;-70
2022/04/01 08:25:08;;;;;;;2.58;1.52;;;;;;;;;;5052371;28;20044;-70
2022/04/01 08:27:34;;;;;;;6.60;1.80;;;;;;;;;;5052597;28;20131;-70
2022/04/01 08:30:00;;;;;;;3.58;1.60;;;;;;;;;;5034853;28;20037;-69
2022/04/01 08:32:29;;;;;;;1.88;1.20;;;;;;;;;;5051923;28;20106;-69
2022/04/01 08:34:55;;;;;;;2.28;1.67;;;;;;;;;;5051924;28;20066;-69
2022/04/01 08:37:21;;;;;;;3.72;1.52;;;;;;;;;;5051994;28;20043;-69
2022/04/01 08:39:47;;;;;;;2.75;1.38;;;;;;;;;;5050050;28;20048;-69
2022/04/01 08:42:14;;;;;;;3.95;1.38;;;;;;;;;;5050624;28;20032;-69
2022/04/01 08:44:41;;;;;;;4.53;1.98;;;;;;;;;;5051752;28;20091;-69
2022/04/01 08:47:10;;;;;;;3.55;2.20;;;;;;;;;;5066270;28;20040;-69
2022/04/01 08:49:36;;;;;;;5.97;2.70;;;;;;;;;;5045888;28;20054;-69
2022/04/01 08:52:03;;;;;;;6.13;2.63;;;;;;;;;;5046495;28;20501;-69
2022/04/01 08:54:32;;;;;;;4.80;3.13;;;;;;;;;;5048007;28;20074;-69
2022/04/01 08:56:58;;;;;;;4.82;2.92;;;;;;;;;;5047354;28;20117;-69
2022/04/01 08:59:31;;;;;;;8.30;2.97;;;;;;;;;;5031090;28;20087;-70
2022/04/01 09:02:07;;;;;;;5.88;2.78;;;;;;;;;;5046093;28;20386;-70
2022/04/01 09:04:33;;;;;;;5.57;3.00;;;;;;;;;;5045583;28;20373;-70
2022/04/01 09:07:10;;;;;;;6.32;2.83;;;;;;;;;;5047850;28;20527;-70
2022/04/01 09:09:36;;;;;;;5.60;2.95;;;;;;;;;;5032246;28;20727;-70
2022/04/01 09:12:06;;;;;;;6.82;3.08;;;;;;;;;;5049863;28;20070;-70
2022/04/01 09:14:33;;;;;;;7.82;3.17;;;;;;;;;;5048861;28;20040;-70
2022/04/01 09:17:00;;;;;;;5.05;3.20;;;;;;;;;;5032094;28;20048;-69
2022/04/01 09:19:31;;;;;;;5.43;2.83;;;;;;;;;;5047550;28;20048;-69
2022/04/01 09:21:57;;;;;;;6.28;2.63;;;;;;;;;;5047365;28;20040;-69
2022/04/01 09:24:23;;;;;;;5.18;3.15;;;;;;;;;;5047098;28;20044;-69
2022/04/01 09:26:55;;;;;;;6.43;3.55;;;;;;;;;;5048782;28;20048;-69
2022/04/01 09:29:21;;;;;;;8.27;3.50;;;;;;;;;;5048739;28;20048;-69
2022/04/01 09:31:52;;;;;;;5.43;3.45;;;;;;;;;;5048268;28;20091;-69
2022/04/01 09:34:18;;;;;;;9.07;3.53;;;;;;;;;;5048737;28;20044;-69
2022/04/01 09:36:45;;;;;;;7.22;3.95;;;;;;;;;;5047201;28;20037;-70
2022/04/01 09:39:18;;;;;;;7.20;3.38;;;;;;;;;;5047776;28;20048;-70
2022/04/01 09:41:46;;;;;;;5.22;3.17;;;;;;;;;;5047005;28;20028;-70
2022/04/01 09:44:12;;;;;;;8.50;4.05;;;;;;;;;;5046446;28;20060;-70
2022/04/01 09:46:47;;;;;;;8.23;3.72;;;;;;;;;;5047198;28;20062;-70
2022/04/01 09:49:15;;;;;;;4.75;3.15;;;;;;;;;;5046846;28;20056;-70
2022/04/01 09:51:43;;;;;;;7.88;4.40;;;;;;;;;;5045858;28;20049;-70
2022/04/01 09:54:09;;;;;;;5.45;3.47;;;;;;;;;;5048039;28;20056;-69
2022/04/01 09:56:39;;;;;;;6.65;3.70;;;;;;;;;;5047153;28;20083;-69
2022/04/01 09:59:06;;;;;;;7.75;4.55;;;;;;;;;;5046331;28;20055;-69
2022/04/01 10:01:33;;;;;;;5.45;3.92;;;;;;;;;;5031289;28;20036;-69
2022/04/01 10:03:59;;;;;;;7.78;4.45;;;;;;;;;;5047559;28;20051;-69
2022/04/01 10:06:26;;;;;;;7.20;4.57;;;;;;;;;;5047404;28;20516;-69
2022/04/01 10:08:53;;;;;;;10.13;5.45;;;;;;;;;;5045431;28;20047;-69
2022/04/01 10:11:20;;;;;;;6.05;4.20;;;;;;;;;;5047436;28;20057;-70
2022/04/01 10:13:48;;;;;;;8.48;4.00;;;;;;;;;;5065017;28;20044;-70
2022/04/01 10:16:14;;;;;;;6.95;4.72;;;;;;;;;;5047121;28;20385;-70
2022/04/01 10:18:42;;;;;;;7.13;4.63;;;;;;;;;;5047025;28;20030;-70
2022/04/01 10:21:08;;;;;;;5.95;4.05;;;;;;;;;;5047337;28;20040;-70
2022/04/01 10:23:37;;;;;;;6.53;4.60;;;;;;;;;;5045433;28;20033;-70
2022/04/01 10:26:06;;;;;;;9.48;4.63;;;;;;;;;;5029276;28;20036;-69
2022/04/01 10:28:33;;;;;;;6.65;4.45;;;;;;;;;;5046467;28;20043;-69
2022/04/01 10:31:00;;;;;;;8.85;4.35;;;;;;;;;;5047626;28;20389;-69
2022/04/01 10:33:28;;;;;;;7.85;4.32;;;;;;;;;;5030268;28;20041;-69
2022/04/01 10:35:55;;;;;;;7.22;4.25;;;;;;;;;;5047106;28;20127;-69
2022/04/01 10:38:24;;;;;;;7.90;4.80;;;;;;;;;;5030104;28;20086;-70
2022/04/01 10:40:51;;;;;;;8.52;4.90;;;;;;;;;;5063573;28;20066;-70
2022/04/01 10:43:18;;;;;;;7.95;5.07;;;;;;;;;;5045898;28;20190;-70
2022/04/01 10:45:58;;;;;;;8.75;4.97;;;;;;;;;;5045500;28;20051;-70
2022/04/01 10:54:06;;;;;;;5.53;3.80;;;;;;;;;;5060690;28;20094;-70
2022/04/01 10:56:34;;;;;;;6.80;4.28;;;;;;;;;;5062155;28;20048;-69
2022/04/01 10:59:38;;;;;;;8.57;5.07;;;;;;;;;;5044479;28;20044;-69
2022/04/01 11:02:06;;;;;;;7.40;4.93;;;;;;;;;;4969378;28;20080;-70
2022/04/01 11:04:37;;;;;;;7.82;4.75;;;;;;;;;;4984631;28;20038;-70
2022/04/01 11:07:14;;;;;;;7.40;4.72;;;;;;;;;;5033330;28;20049;-70
2022/04/01 11:09:40;;;;;;;7.40;4.72;;;;;;;;;;5030043;28;20488;-70
2022/04/01 11:12:19;;;;;;;9.00;5.45;;;;;;;;;;5047879;28;20072;-70
2022/04/01 11:14:58;;;;;;;8.75;5.28;;;;;;;;;;5048408;28;20048;-69
2022/04/01 11:17:26;;;;;;;7.63;4.65;;;;;;;;;;5048544;28;20435;-69
2022/04/01 11:20:04;;;;;;;5.40;3.55;;;;;;;;;;5047436;28;20048;-70
2022/04/01 11:22:37;;;;;;;7.35;3.22;;;;;;;;;;5048084;28;20073;-70
2022/04/01 11:25:04;;;;;;;3.97;2.80;;;;;;;;;;5048089;28;20392;-70
2022/04/01 11:27:30;;;;;;;5.88;3.33;;;;;;;;;;5048207;28;20037;-69
2022/04/01 11:30:14;;;;;;;6.93;2.95;;;;;;;;;;5051701;28;20040;-69
2022/04/01 11:32:43;;;;;;;4.40;2.95;;;;;;;;;;5051838;28;20043;-69
2022/04/01 11:35:10;;;;;;;3.83;2.40;;;;;;;;;;5036060;28;20048;-69
2022/04/01 11:37:38;;;;;;;5.32;2.50;;;;;;;;;;5051289;28;20167;-69
2022/04/01 11:40:13;;;;;;;5.03;2.45;;;;;;;;;;5050262;28;20044;-69
2022/04/01 11:42:58;;;;;;;6.30;3.00;;;;;;;;;;5048912;28;20040;-70
2022/04/01 11:45:25;;;;;;;5.32;2.67;;;;;;;;;;5050183;28;20059;-70
2022/04/01 11:47:52;;;;;;;4.20;2.30;;;;;;;;;;5049307;28;20036;-69
2022/04/01 11:50:20;;;;;;;4.63;2.22;;;;;;;;;;5017100;28;20052;-69
2022/04/01 11:52:50;;;;;;;2.95;2.10;;;;;;;;;;5050873;28;20376;-69
2022/04/01 11:55:17;;;;;;;5.85;2.42;;;;;;;;;;5035012;28;20113;-69
2022/04/01 11:57:44;;;;;;;3.78;2.20;;;;;;;;;;5049801;28;20408;-70
2022/04/01 12:00:11;;;;;;;5.18;2.20;;;;;;;;;;5049853;28;20049;-69
2022/04/01 12:02:38;;;;;;;5.07;2.47;;;;;;;;;;5050168;28;20037;-69
2022/04/01 12:05:04;;;;;;;4.82;2.10;;;;;;;;;;5050282;28;20044;-70
2022/04/01 12:10:22;;;;;;;5.25;2.60;;;;;;;;;;5049739;28;20055;-69
2022/04/01 12:12:58;;;;;;;4.60;1.98;;;;;;;;;;5050747;28;20049;-69
2022/04/01 12:15:31;;;;;;;3.95;2.50;;;;;;;;;;5050103;28;20048;-69
2022/04/01 12:17:57;;;;;;;4.28;2.35;;;;;;;;;;5065812;28;20037;-69
2022/04/01 12:20:23;;;;;;;3.70;1.92;;;;;;;;;;5049224;28;20126;-69
2022/04/01 12:22:52;;;;;;;3.90;1.75;;;;;;;;;;5049873;28;20095;-69
2022/04/01 12:25:19;;;;;;;7.10;2.55;;;;;;;;;;5050852;28;20044;-69
2022/04/01 12:28:05;;;;;;;5.05;1.80;;;;;;;;;;5050202;28;20045;-69
2022/04/01 12:30:32;;;;;;;6.15;2.15;;;;;;;;;;5049222;28;20370;-69
2022/04/01 12:33:02;;;;;;;3.45;1.60;;;;;;;;;;5050729;28;20225;-70
2022/04/01 12:35:29;;;;;;;2.95;1.77;;;;;;;;;;5049329;28;20044;-64
2022/04/01 12:38:09;;;;;;;4.00;1.40;;;;;;;;;;5068163;28;20043;-70
2022/04/01 12:40:45;;;;;;;3.47;1.77;;;;;;;;;;5049745;28;20427;-69
2022/04/01 12:43:30;;;;;;;2.78;1.73;;;;;;;;;;5047842;28;20044;-67
2022/04/01 12:46:00;;;;;;;3.28;1.48;;;;;;;;;;5051379;28;20037;-69
2022/04/01 12:48:26;;;;;;;3.22;1.90;;;;;;;;;;5048377;28;20036;-69
2022/04/01 12:50:55;;;;;;;3.17;1.70;;;;;;;;;;5031796;28;20055;-69
2022/04/01 12:53:22;;;;;;;2.65;1.40;;;;;;;;;;5048771;28;20041;-69
2022/04/01 12:55:48;;;;;;;2.67;1.67;;;;;;;;;;5034629;28;20265;-70
2022/04/01 12:58:14;;;;;;;3.60;1.70;;;;;;;;;;5051241;28;20126;-69
2022/04/01 13:00:40;;;;;;;5.28;2.00;;;;;;;;;;5049982;28;20058;-69
2022/04/01 13:03:08;;;;;;;3.47;1.63;;;;;;;;;;5049421;28;20040;-69
2022/04/01 13:05:34;;;;;;;3.45;1.80;;;;;;;;;;5049478;28;20123;-69
2022/04/01 13:08:01;;;;;;;4.38;1.80;;;;;;;;;;5049282;28;20052;-70
2022/04/01 13:10:27;;;;;;;3.47;1.67;;;;;;;;;;5050603;28;20080;-70
2022/04/01 13:12:55;;;;;;;3.88;2.00;;;;;;;;;;5065490;28;20053;-68
2022/04/01 13:15:27;;;;;;;5.00;2.30;;;;;;;;;;5049749;28;20056;-68
2022/04/01 13:17:54;;;;;;;4.85;1.90;;;;;;;;;;5051210;28;20052;-68
2022/04/01 13:20:21;;;;;;;2.60;1.70;;;;;;;;;;5051830;28;20127;-68
2022/04/01 13:22:47;;;;;;;3.65;1.80;;;;;;;;;;5050184;28;20051;-68
2022/04/01 13:25:14;;;;;;;2.80;1.77;;;;;;;;;;5052152;28;20067;-68
2022/04/01 13:27:40;;;;;;;3.20;1.85;;;;;;;;;;5050946;28;20105;-69
2022/04/01 13:30:08;;;;;;;2.80;1.70;;;;;;;;;;5050816;28;20064;-69
2022/04/01 13:32:34;;;;;;;3.00;1.80;;;;;;;;;;5050923;28;20067;-69
2022/04/01 13:35:01;;;;;;;5.00;2.00;;;;;;;;;;5051757;28;20174;-68
2022/04/01 13:37:27;;;;;;;4.15;1.67;;;;;;;;;;5053819;28;20131;-68
2022/04/01 13:39:54;;;;;;;4.82;1.90;;;;;;;;;;5053201;28;20630;-68
2022/04/01 13:42:23;;;;;;;5.82;1.90;;;;;;;;;;5050858;28;20093;-68
2022/04/01 13:44:49;;;;;;;6.43;1.85;;;;;;;;;;5052572;28;20040;-69
2022/04/01 13:47:16;;;;;;;4.22;1.70;;;;;;;;;;5053463;28;20085;-69
2022/04/01 13:49:43;;;;;;;2.88;1.60;;;;;;;;;;5049784;28;20113;-69
2022/04/01 13:52:10;;;;;;;3.22;1.80;;;;;;;;;;5050535;28;20051;-69
2022/04/01 13:54:36;;;;;;;4.05;1.83;;;;;;;;;;5031040;28;20106;-68
2022/04/01 13:57:02;;;;;;;7.38;2.10;;;;;;;;;;5048034;28;20047;-69
2022/04/01 13:59:29;;;;;;;3.53;1.90;;;;;;;;;;5049570;28;20113;-69
2022/04/01 14:01:56;;;;;;;4.90;1.75;;;;;;;;;;5032630;28;20032;-69
2022/04/01 14:04:22;;;;;;;3.35;1.95;;;;;;;;;;5048646;28;20040;-69
2022/04/01 14:06:50;;;;;;;4.40;1.80;;;;;;;;;;5031152;28;20037;-69
2022/04/01 14:09:16;;;;;;;3.47;2.00;;;;;;;;;;5048785;28;20044;-69
2022/04/01 14:11:42;;;;;;;5.13;1.80;;;;;;;;;;5047657;28;20160;-69
2022/04/01 14:14:09;;;;;;;5.18;1.83;;;;;;;;;;5047482;28;20052;-69
2022/04/01 14:16:36;;;;;;;4.18;2.30;;;;;;;;;;5049821;28;20064;-68
2022/04/01 14:19:06;;;;;;;2.42;1.67;;;;;;;;;;5065573;28;20373;-68
2022/04/01 14:21:32;;;;;;;3.70;1.67;;;;;;;;;;5050599;28;20085;-69
2022/04/01 14:23:58;;;;;;;5.13;1.55;;;;;;;;;;5071038;28;20079;-68
2022/04/01 14:26:25;;;;;;;4.50;1.80;;;;;;;;;;5048191;28;20093;-68
2022/04/01 14:28:52;;;;;;;5.00;1.73;;;;;;;;;;5047269;28;20429;-68
2022/04/01 14:31:19;;;;;;;2.58;1.40;;;;;;;;;;5049424;28;20052;-69
2022/04/01 14:33:46;;;;;;;3.25;1.38;;;;;;;;;;5050812;28;20184;-68
2022/04/01 14:36:12;;;;;;;2.72;1.60;;;;;;;;;;5050102;28;20094;-72
2022/04/01 14:38:38;;;;;;;4.30;1.80;;;;;;;;;;5047982;28;20413;-69
2022/04/01 14:41:04;;;;;;;3.40;1.33;;;;;;;;;;5050801;28;20036;-68
2022/04/01 14:43:30;;;;;;;3.42;1.40;;;;;;;;;;5054025;28;20032;-69
2022/04/01 14:45:56;;;;;;;3.05;1.15;;;;;;;;;;5034529;28;20041;-70
2022/04/01 14:48:22;;;;;;;3.95;1.70;;;;;;;;;;5039926;28;20048;-69
2022/04/01 14:50:48;;;;;;;4.22;1.80;;;;;;;;;;5050247;28;20056;-70
2022/04/01 14:53:14;;;;;;;3.15;1.40;;;;;;;;;;5050847;28;20041;-69
2022/04/01 14:55:41;;;;;;;2.88;1.50;;;;;;;;;;5052858;28;20477;-69
2022/04/01 14:58:07;;;;;;;4.53;1.50;;;;;;;;;;5034096;28;20131;-69
2022/04/01 15:00:35;;;;;;;3.92;1.30;;;;;;;;;;5053407;28;20520;-69
2022/04/01 15:03:01;;;;;;;3.05;1.48;;;;;;;;;;5055761;28;21544;-69
2022/04/01 15:05:28;;;;;;;4.88;1.58;;;;;;;;;;5053974;28;20447;-69
2022/04/01 15:07:55;;;;;;;4.82;1.70;;;;;;;;;;5054613;28;20075;-69